sensor_id;sensor_type;location;lat;lon;timestamp;P1;durP1;ratioP1;P2;durP2;ratioP2
2662;SDS011;49701;48.072;7.800;2022-08-19T00:01:40;15.02;;;13.25;;
2662;SDS011;49701;48.072;7.800;2022-08-19T00:04:08;18.85;;;14.02;;
2662;SDS011;49701;48.072;7.800;2022-08-19T00:06:37;16.23;;;13.55;;
2662;SDS011;49701;48.072;7.800;2022-08-19T00:09:05;18.30;;;14.40;;
2662;SDS011;49701;48.072;7.800;2022-08-19T00:11:33;18.40;;;14.02;;
2662;SDS011;49701;48.072;7.800;2022-08-19T00:14:01;16.55;;;14.85;;
2662;SDS011;49701;48.072;7.800;2022-08-19T00:16:27;14.30;;;12.77;;
2662;SDS011;49701;48.072;7.800;2022-08-19T00:18:54;18.35;;;14.95;;
2662;SDS011;49701;48.072;7.800;2022-08-19T00:21:20;16.10;;;14.40;;
2662;SDS011;49701;48.072;7.800;2022-08-19T00:23:46;17.83;;;14.50;;
2662;SDS011;49701;48.072;7.800;2022-08-19T00:26:12;18.42;;;15.15;;
2662;SDS011;49701;48.072;7.800;2022-08-19T00:28:37;17.85;;;15.15;;
2662;SDS011;49701;48.072;7.800;2022-08-19T00:31:03;17.45;;;15.65;;
2662;SDS011;49701;48.072;7.800;2022-08-19T00:33:31;18.00;;;15.43;;
2662;SDS011;49701;48.072;7.800;2022-08-19T00:35:57;20.15;;;15.63;;
2662;SDS011;49701;48.072;7.800;2022-08-19T00:38:27;19.55;;;15.80;;
2662;SDS011;49701;48.072;7.800;2022-08-19T00:40:53;18.33;;;15.00;;
2662;SDS011;49701;48.072;7.800;2022-08-19T00:43:20;15.90;;;14.20;;
2662;SDS011;49701;48.072;7.800;2022-08-19T00:45:47;17.83;;;13.60;;
2662;SDS011;49701;48.072;7.800;2022-08-19T00:48:14;14.23;;;12.75;;
2662;SDS011;49701;48.072;7.800;2022-08-19T00:50:41;14.48;;;12.95;;
2662;SDS011;49701;48.072;7.800;2022-08-19T00:53:09;15.98;;;12.07;;
2662;SDS011;49701;48.072;7.800;2022-08-19T00:55:37;13.73;;;11.93;;
2662;SDS011;49701;48.072;7.800;2022-08-19T00:58:05;14.25;;;12.35;;
2662;SDS011;49701;48.072;7.800;2022-08-19T01:00:34;16.55;;;12.50;;
2662;SDS011;49701;48.072;7.800;2022-08-19T01:03:02;15.88;;;13.30;;
2662;SDS011;49701;48.072;7.800;2022-08-19T01:05:30;15.68;;;14.00;;
2662;SDS011;49701;48.072;7.800;2022-08-19T01:07:56;15.05;;;13.43;;
2662;SDS011;49701;48.072;7.800;2022-08-19T01:10:24;16.55;;;14.15;;
2662;SDS011;49701;48.072;7.800;2022-08-19T01:12:53;18.40;;;14.18;;
2662;SDS011;49701;48.072;7.800;2022-08-19T01:15:21;17.23;;;14.63;;
2662;SDS011;49701;48.072;7.800;2022-08-19T01:17:50;21.83;;;14.55;;
2662;SDS011;49701;48.072;7.800;2022-08-19T01:20:19;16.48;;;14.45;;
2662;SDS011;49701;48.072;7.800;2022-08-19T01:22:48;17.05;;;14.85;;
2662;SDS011;49701;48.072;7.800;2022-08-19T01:25:16;19.90;;;15.90;;
2662;SDS011;49701;48.072;7.800;2022-08-19T01:27:50;18.98;;;16.35;;
2662;SDS011;49701;48.072;7.800;2022-08-19T01:30:18;19.92;;;15.88;;
2662;SDS011;49701;48.072;7.800;2022-08-19T01:32:49;21.20;;;16.95;;
2662;SDS011;49701;48.072;7.800;2022-08-19T01:35:16;19.15;;;16.75;;
2662;SDS011;49701;48.072;7.800;2022-08-19T01:37:49;21.95;;;17.52;;
2662;SDS011;49701;48.072;7.800;2022-08-19T01:40:22;23.70;;;18.40;;
2662;SDS011;49701;48.072;7.800;2022-08-19T01:42:51;27.27;;;18.83;;
2662;SDS011;49701;48.072;7.800;2022-08-19T01:45:18;28.55;;;18.98;;
2662;SDS011;49701;48.072;7.800;2022-08-19T01:47:45;20.83;;;17.40;;
2662;SDS011;49701;48.072;7.800;2022-08-19T01:50:11;23.52;;;18.90;;
2662;SDS011;49701;48.072;7.800;2022-08-19T01:52:39;21.48;;;18.50;;
2662;SDS011;49701;48.072;7.800;2022-08-19T01:55:07;23.20;;;18.92;;
2662;SDS011;49701;48.072;7.800;2022-08-19T01:57:34;22.83;;;18.52;;
2662;SDS011;49701;48.072;7.800;2022-08-19T02:00:01;23.48;;;17.92;;
2662;SDS011;49701;48.072;7.800;2022-08-19T02:02:30;26.35;;;18.38;;
2662;SDS011;49701;48.072;7.800;2022-08-19T02:04:56;21.25;;;17.38;;
2662;SDS011;49701;48.072;7.800;2022-08-19T02:07:22;20.85;;;17.50;;
2662;SDS011;49701;48.072;7.800;2022-08-19T02:09:48;18.65;;;16.67;;
2662;SDS011;49701;48.072;7.800;2022-08-19T02:12:13;19.42;;;17.08;;
2662;SDS011;49701;48.072;7.800;2022-08-19T02:14:41;19.42;;;16.58;;
2662;SDS011;49701;48.072;7.800;2022-08-19T02:17:07;24.25;;;16.10;;
2662;SDS011;49701;48.072;7.800;2022-08-19T02:19:33;23.38;;;16.67;;
2662;SDS011;49701;48.072;7.800;2022-08-19T02:21:59;23.38;;;17.48;;
2662;SDS011;49701;48.072;7.800;2022-08-19T02:24:25;22.15;;;17.05;;
2662;SDS011;49701;48.072;7.800;2022-08-19T02:26:51;21.33;;;17.15;;
2662;SDS011;49701;48.072;7.800;2022-08-19T02:29:17;22.88;;;16.73;;
2662;SDS011;49701;48.072;7.800;2022-08-19T02:31:43;22.08;;;17.45;;
2662;SDS011;49701;48.072;7.800;2022-08-19T02:34:08;22.92;;;17.45;;
2662;SDS011;49701;48.072;7.800;2022-08-19T02:36:34;19.73;;;16.45;;
2662;SDS011;49701;48.072;7.800;2022-08-19T02:39:00;19.63;;;16.90;;
2662;SDS011;49701;48.072;7.800;2022-08-19T02:41:27;20.10;;;17.33;;
2662;SDS011;49701;48.072;7.800;2022-08-19T02:43:54;21.30;;;17.63;;
2662;SDS011;49701;48.072;7.800;2022-08-19T02:46:25;19.33;;;16.65;;
2662;SDS011;49701;48.072;7.800;2022-08-19T02:48:55;20.30;;;18.05;;
2662;SDS011;49701;48.072;7.800;2022-08-19T02:51:24;20.58;;;17.23;;
2662;SDS011;49701;48.072;7.800;2022-08-19T02:53:51;26.58;;;17.05;;
2662;SDS011;49701;48.072;7.800;2022-08-19T02:56:18;21.98;;;17.85;;
2662;SDS011;49701;48.072;7.800;2022-08-19T02:58:44;19.20;;;16.00;;
2662;SDS011;49701;48.072;7.800;2022-08-19T03:01:10;16.08;;;13.63;;
2662;SDS011;49701;48.072;7.800;2022-08-19T03:03:43;17.20;;;14.80;;
2662;SDS011;49701;48.072;7.800;2022-08-19T03:06:11;16.45;;;13.98;;
2662;SDS011;49701;48.072;7.800;2022-08-19T03:08:39;16.08;;;13.93;;
2662;SDS011;49701;48.072;7.800;2022-08-19T03:11:06;17.92;;;16.00;;
2662;SDS011;49701;48.072;7.800;2022-08-19T03:13:37;15.35;;;12.90;;
2662;SDS011;49701;48.072;7.800;2022-08-19T03:16:04;16.98;;;12.85;;
2662;SDS011;49701;48.072;7.800;2022-08-19T03:18:30;14.40;;;12.57;;
2662;SDS011;49701;48.072;7.800;2022-08-19T03:20:55;15.18;;;13.68;;
2662;SDS011;49701;48.072;7.800;2022-08-19T03:23:22;16.73;;;14.98;;
2662;SDS011;49701;48.072;7.800;2022-08-19T03:25:49;17.52;;;14.23;;
2662;SDS011;49701;48.072;7.800;2022-08-19T03:28:15;17.73;;;15.82;;
2662;SDS011;49701;48.072;7.800;2022-08-19T03:30:42;19.52;;;14.18;;
2662;SDS011;49701;48.072;7.800;2022-08-19T03:33:21;17.95;;;14.98;;
2662;SDS011;49701;48.072;7.800;2022-08-19T03:35:46;12.85;;;11.02;;
2662;SDS011;49701;48.072;7.800;2022-08-19T03:38:12;15.30;;;12.95;;
2662;SDS011;49701;48.072;7.800;2022-08-19T03:40:37;15.07;;;12.20;;
2662;SDS011;49701;48.072;7.800;2022-08-19T03:43:03;14.48;;;12.88;;
2662;SDS011;49701;48.072;7.800;2022-08-19T03:45:29;14.88;;;12.32;;
2662;SDS011;49701;48.072;7.800;2022-08-19T03:47:54;14.48;;;12.52;;
2662;SDS011;49701;48.072;7.800;2022-08-19T03:50:20;15.43;;;13.48;;
2662;SDS011;49701;48.072;7.800;2022-08-19T03:52:49;17.25;;;15.43;;
2662;SDS011;49701;48.072;7.800;2022-08-19T03:55:16;17.48;;;15.18;;
2662;SDS011;49701;48.072;7.800;2022-08-19T03:57:42;15.05;;;13.07;;
2662;SDS011;49701;48.072;7.800;2022-08-19T04:00:10;15.48;;;13.88;;
2662;SDS011;49701;48.072;7.800;2022-08-19T04:02:36;19.05;;;15.40;;
2662;SDS011;49701;48.072;7.800;2022-08-19T04:05:01;19.60;;;16.73;;
2662;SDS011;49701;48.072;7.800;2022-08-19T04:07:27;18.77;;;16.48;;
2662;SDS011;49701;48.072;7.800;2022-08-19T04:09:53;19.17;;;16.63;;
2662;SDS011;49701;48.072;7.800;2022-08-19T04:12:18;17.80;;;15.27;;
2662;SDS011;49701;48.072;7.800;2022-08-19T04:14:45;18.50;;;16.52;;
2662;SDS011;49701;48.072;7.800;2022-08-19T04:17:11;18.95;;;16.92;;
2662;SDS011;49701;48.072;7.800;2022-08-19T04:19:39;21.15;;;17.50;;
2662;SDS011;49701;48.072;7.800;2022-08-19T04:22:04;22.58;;;15.60;;
2662;SDS011;49701;48.072;7.800;2022-08-19T04:24:30;17.35;;;14.85;;
2662;SDS011;49701;48.072;7.800;2022-08-19T04:26:56;16.90;;;13.75;;
2662;SDS011;49701;48.072;7.800;2022-08-19T04:29:24;17.73;;;15.02;;
2662;SDS011;49701;48.072;7.800;2022-08-19T04:31:52;19.13;;;17.05;;
2662;SDS011;49701;48.072;7.800;2022-08-19T04:34:19;15.82;;;13.48;;
2662;SDS011;49701;48.072;7.800;2022-08-19T04:36:47;19.95;;;16.33;;
2662;SDS011;49701;48.072;7.800;2022-08-19T04:39:16;20.08;;;16.15;;
2662;SDS011;49701;48.072;7.800;2022-08-19T04:41:43;23.95;;;18.88;;
2662;SDS011;49701;48.072;7.800;2022-08-19T04:44:29;24.73;;;19.38;;
2662;SDS011;49701;48.072;7.800;2022-08-19T04:46:56;26.10;;;20.98;;
2662;SDS011;49701;48.072;7.800;2022-08-19T04:49:22;25.45;;;19.75;;
2662;SDS011;49701;48.072;7.800;2022-08-19T04:51:49;25.85;;;20.67;;
2662;SDS011;49701;48.072;7.800;2022-08-19T04:54:17;24.00;;;20.13;;
2662;SDS011;49701;48.072;7.800;2022-08-19T04:56:43;26.42;;;20.95;;
2662;SDS011;49701;48.072;7.800;2022-08-19T04:59:08;23.80;;;20.48;;
2662;SDS011;49701;48.072;7.800;2022-08-19T05:01:35;26.67;;;21.75;;
2662;SDS011;49701;48.072;7.800;2022-08-19T05:04:01;28.10;;;22.65;;
2662;SDS011;49701;48.072;7.800;2022-08-19T05:06:30;32.22;;;23.05;;
2662;SDS011;49701;48.072;7.800;2022-08-19T05:08:59;27.08;;;22.13;;
2662;SDS011;49701;48.072;7.800;2022-08-19T05:11:26;28.05;;;22.52;;
2662;SDS011;49701;48.072;7.800;2022-08-19T05:13:57;28.40;;;22.90;;
2662;SDS011;49701;48.072;7.800;2022-08-19T05:16:23;28.98;;;22.95;;
2662;SDS011;49701;48.072;7.800;2022-08-19T05:18:50;31.73;;;23.80;;
2662;SDS011;49701;48.072;7.800;2022-08-19T05:21:34;30.50;;;21.77;;
2662;SDS011;49701;48.072;7.800;2022-08-19T05:24:19;31.48;;;23.92;;
2662;SDS011;49701;48.072;7.800;2022-08-19T05:26:47;25.48;;;20.30;;
2662;SDS011;49701;48.072;7.800;2022-08-19T05:29:16;33.80;;;25.52;;
2662;SDS011;49701;48.072;7.800;2022-08-19T05:31:44;24.00;;;18.90;;
2662;SDS011;49701;48.072;7.800;2022-08-19T05:34:14;27.92;;;21.88;;
2662;SDS011;49701;48.072;7.800;2022-08-19T05:36:40;29.48;;;22.70;;
2662;SDS011;49701;48.072;7.800;2022-08-19T05:39:08;31.95;;;23.50;;
2662;SDS011;49701;48.072;7.800;2022-08-19T05:41:35;27.65;;;22.15;;
2662;SDS011;49701;48.072;7.800;2022-08-19T05:44:05;23.67;;;17.95;;
2662;SDS011;49701;48.072;7.800;2022-08-19T05:46:34;21.73;;;18.35;;
2662;SDS011;49701;48.072;7.800;2022-08-19T05:49:00;21.10;;;18.88;;
2662;SDS011;49701;48.072;7.800;2022-08-19T05:51:26;24.60;;;19.27;;
2662;SDS011;49701;48.072;7.800;2022-08-19T05:53:51;18.58;;;16.50;;
2662;SDS011;49701;48.072;7.800;2022-08-19T05:56:17;26.50;;;19.52;;
2662;SDS011;49701;48.072;7.800;2022-08-19T05:58:44;22.00;;;18.98;;
2662;SDS011;49701;48.072;7.800;2022-08-19T06:01:14;22.67;;;18.60;;
2662;SDS011;49701;48.072;7.800;2022-08-19T06:03:41;17.15;;;15.35;;
2662;SDS011;49701;48.072;7.800;2022-08-19T06:06:08;21.15;;;17.52;;
2662;SDS011;49701;48.072;7.800;2022-08-19T06:08:35;21.10;;;18.10;;
2662;SDS011;49701;48.072;7.800;2022-08-19T06:11:17;22.00;;;19.45;;
2662;SDS011;49701;48.072;7.800;2022-08-19T06:13:45;25.25;;;19.88;;
2662;SDS011;49701;48.072;7.800;2022-08-19T06:16:16;21.35;;;18.35;;
2662;SDS011;49701;48.072;7.800;2022-08-19T06:18:49;22.77;;;17.17;;
2662;SDS011;49701;48.072;7.800;2022-08-19T06:21:19;21.35;;;17.10;;
2662;SDS011;49701;48.072;7.800;2022-08-19T06:23:46;20.77;;;18.48;;
2662;SDS011;49701;48.072;7.800;2022-08-19T06:26:13;18.67;;;16.45;;
2662;SDS011;49701;48.072;7.800;2022-08-19T06:28:39;20.17;;;17.40;;
2662;SDS011;49701;48.072;7.800;2022-08-19T06:31:14;21.58;;;17.60;;
2662;SDS011;49701;48.072;7.800;2022-08-19T06:33:51;19.95;;;17.23;;
2662;SDS011;49701;48.072;7.800;2022-08-19T06:36:17;19.92;;;15.73;;
2662;SDS011;49701;48.072;7.800;2022-08-19T06:38:52;25.20;;;17.10;;
2662;SDS011;49701;48.072;7.800;2022-08-19T06:41:18;18.42;;;16.48;;
2662;SDS011;49701;48.072;7.800;2022-08-19T06:43:43;18.20;;;15.80;;
2662;SDS011;49701;48.072;7.800;2022-08-19T06:46:13;20.02;;;16.60;;
2662;SDS011;49701;48.072;7.800;2022-08-19T06:48:40;19.73;;;16.67;;
2662;SDS011;49701;48.072;7.800;2022-08-19T06:51:06;17.27;;;15.50;;
2662;SDS011;49701;48.072;7.800;2022-08-19T06:53:32;16.80;;;15.07;;
2662;SDS011;49701;48.072;7.800;2022-08-19T06:55:58;19.77;;;16.02;;
2662;SDS011;49701;48.072;7.800;2022-08-19T06:58:27;17.45;;;14.93;;
2662;SDS011;49701;48.072;7.800;2022-08-19T07:00:57;18.25;;;14.70;;
2662;SDS011;49701;48.072;7.800;2022-08-19T07:03:32;16.35;;;14.65;;
2662;SDS011;49701;48.072;7.800;2022-08-19T07:06:06;16.65;;;13.73;;
2662;SDS011;49701;48.072;7.800;2022-08-19T07:08:35;18.48;;;14.70;;
2662;SDS011;49701;48.072;7.800;2022-08-19T07:11:05;17.25;;;14.48;;
2662;SDS011;49701;48.072;7.800;2022-08-19T07:13:32;17.60;;;14.25;;
2662;SDS011;49701;48.072;7.800;2022-08-19T07:16:09;16.33;;;14.15;;
2662;SDS011;49701;48.072;7.800;2022-08-19T07:18:37;13.82;;;12.32;;
2662;SDS011;49701;48.072;7.800;2022-08-19T07:21:07;14.88;;;13.38;;
2662;SDS011;49701;48.072;7.800;2022-08-19T07:23:33;22.00;;;15.57;;
2662;SDS011;49701;48.072;7.800;2022-08-19T07:26:09;17.80;;;15.45;;
2662;SDS011;49701;48.072;7.800;2022-08-19T07:28:55;16.40;;;14.70;;
2662;SDS011;49701;48.072;7.800;2022-08-19T07:31:23;18.08;;;15.15;;
2662;SDS011;49701;48.072;7.800;2022-08-19T07:33:51;17.70;;;15.30;;
2662;SDS011;49701;48.072;7.800;2022-08-19T07:36:19;16.50;;;14.77;;
2662;SDS011;49701;48.072;7.800;2022-08-19T07:38:51;17.58;;;15.55;;
2662;SDS011;49701;48.072;7.800;2022-08-19T07:41:20;16.08;;;13.95;;
2662;SDS011;49701;48.072;7.800;2022-08-19T07:43:48;16.77;;;15.15;;
2662;SDS011;49701;48.072;7.800;2022-08-19T07:46:14;16.70;;;14.38;;
2662;SDS011;49701;48.072;7.800;2022-08-19T07:48:43;19.23;;;15.57;;
2662;SDS011;49701;48.072;7.800;2022-08-19T07:51:13;16.27;;;14.52;;
2662;SDS011;49701;48.072;7.800;2022-08-19T07:53:41;16.25;;;14.55;;
2662;SDS011;49701;48.072;7.800;2022-08-19T07:56:08;18.38;;;15.07;;
2662;SDS011;49701;48.072;7.800;2022-08-19T07:58:35;18.38;;;16.23;;
2662;SDS011;49701;48.072;7.800;2022-08-19T08:01:03;16.70;;;14.63;;
2662;SDS011;49701;48.072;7.800;2022-08-19T08:03:29;19.60;;;15.32;;
2662;SDS011;49701;48.072;7.800;2022-08-19T08:06:15;16.60;;;14.70;;
2662;SDS011;49701;48.072;7.800;2022-08-19T08:09:03;17.95;;;15.10;;
2662;SDS011;49701;48.072;7.800;2022-08-19T08:11:36;20.65;;;15.80;;
2662;SDS011;49701;48.072;7.800;2022-08-19T08:14:07;20.88;;;15.13;;
2662;SDS011;49701;48.072;7.800;2022-08-19T08:16:37;17.48;;;15.27;;
2662;SDS011;49701;48.072;7.800;2022-08-19T08:19:04;16.90;;;15.20;;
2662;SDS011;49701;48.072;7.800;2022-08-19T08:21:31;17.50;;;15.20;;
2662;SDS011;49701;48.072;7.800;2022-08-19T08:23:57;18.13;;;15.85;;
2662;SDS011;49701;48.072;7.800;2022-08-19T08:26:23;19.65;;;17.20;;
2662;SDS011;49701;48.072;7.800;2022-08-19T08:28:50;16.60;;;13.98;;
2662;SDS011;49701;48.072;7.800;2022-08-19T08:31:16;18.77;;;16.08;;
2662;SDS011;49701;48.072;7.800;2022-08-19T08:33:43;17.60;;;15.73;;
2662;SDS011;49701;48.072;7.800;2022-08-19T08:36:10;18.58;;;16.58;;
2662;SDS011;49701;48.072;7.800;2022-08-19T08:38:38;21.42;;;17.30;;
2662;SDS011;49701;48.072;7.800;2022-08-19T08:41:09;21.13;;;17.15;;
2662;SDS011;49701;48.072;7.800;2022-08-19T08:43:56;19.00;;;16.25;;
2662;SDS011;49701;48.072;7.800;2022-08-19T08:46:28;19.38;;;16.50;;
2662;SDS011;49701;48.072;7.800;2022-08-19T08:54:40;19.90;;;16.48;;
2662;SDS011;49701;48.072;7.800;2022-08-19T08:57:12;20.55;;;18.23;;
2662;SDS011;49701;48.072;7.800;2022-08-19T08:59:43;17.58;;;15.73;;
2662;SDS011;49701;48.072;7.800;2022-08-19T09:02:15;20.15;;;17.95;;
2662;SDS011;49701;48.072;7.800;2022-08-19T09:04:41;18.52;;;16.45;;
2662;SDS011;49701;48.072;7.800;2022-08-19T09:07:14;19.90;;;17.80;;
2662;SDS011;49701;48.072;7.800;2022-08-19T09:10:49;20.17;;;17.23;;
2662;SDS011;49701;48.072;7.800;2022-08-19T09:18:55;23.90;;;16.33;;
2662;SDS011;49701;48.072;7.800;2022-08-19T09:21:24;24.48;;;18.02;;
2662;SDS011;49701;48.072;7.800;2022-08-19T09:23:51;22.23;;;16.55;;
2662;SDS011;49701;48.072;7.800;2022-08-19T09:26:18;20.98;;;17.52;;
2662;SDS011;49701;48.072;7.800;2022-08-19T09:28:45;19.33;;;17.20;;
2662;SDS011;49701;48.072;7.800;2022-08-19T09:31:16;19.88;;;15.25;;
2662;SDS011;49701;48.072;7.800;2022-08-19T09:33:43;20.63;;;16.73;;
2662;SDS011;49701;48.072;7.800;2022-08-19T09:36:11;20.60;;;17.60;;
2662;SDS011;49701;48.072;7.800;2022-08-19T09:38:39;21.55;;;17.60;;
2662;SDS011;49701;48.072;7.800;2022-08-19T09:41:17;21.45;;;16.38;;
2662;SDS011;49701;48.072;7.800;2022-08-19T09:43:45;20.45;;;16.73;;
2662;SDS011;49701;48.072;7.800;2022-08-19T09:46:12;18.95;;;16.88;;
2662;SDS011;49701;48.072;7.800;2022-08-19T09:48:38;19.17;;;16.55;;
2662;SDS011;49701;48.072;7.800;2022-08-19T09:51:08;18.00;;;16.10;;
2662;SDS011;49701;48.072;7.800;2022-08-19T09:53:35;22.27;;;16.52;;
2662;SDS011;49701;48.072;7.800;2022-08-19T09:56:03;25.88;;;17.13;;
2662;SDS011;49701;48.072;7.800;2022-08-19T09:58:30;20.20;;;17.75;;
2662;SDS011;49701;48.072;7.800;2022-08-19T10:00:57;19.73;;;17.65;;
2662;SDS011;49701;48.072;7.800;2022-08-19T10:03:24;19.63;;;17.55;;
2662;SDS011;49701;48.072;7.800;2022-08-19T10:05:52;20.70;;;16.90;;
2662;SDS011;49701;48.072;7.800;2022-08-19T10:08:20;20.75;;;16.48;;
2662;SDS011;49701;48.072;7.800;2022-08-19T10:10:48;20.40;;;17.80;;
2662;SDS011;49701;48.072;7.800;2022-08-19T10:13:16;24.00;;;19.08;;
2662;SDS011;49701;48.072;7.800;2022-08-19T10:15:46;21.00;;;16.92;;
2662;SDS011;49701;48.072;7.800;2022-08-19T10:18:15;17.90;;;15.52;;
2662;SDS011;49701;48.072;7.800;2022-08-19T10:20:42;20.83;;;17.30;;
2662;SDS011;49701;48.072;7.800;2022-08-19T10:23:10;18.10;;;16.10;;
2662;SDS011;49701;48.072;7.800;2022-08-19T10:25:36;21.40;;;18.67;;
2662;SDS011;49701;48.072;7.800;2022-08-19T10:28:02;20.23;;;17.58;;
2662;SDS011;49701;48.072;7.800;2022-08-19T10:30:29;36.92;;;17.92;;
2662;SDS011;49701;48.072;7.800;2022-08-19T10:32:54;22.58;;;18.70;;
2662;SDS011;49701;48.072;7.800;2022-08-19T10:35:20;20.15;;;17.50;;
2662;SDS011;49701;48.072;7.800;2022-08-19T10:37:46;24.27;;;18.00;;
2662;SDS011;49701;48.072;7.800;2022-08-19T10:40:11;69.57;;;21.13;;
2662;SDS011;49701;48.072;7.800;2022-08-19T10:42:37;43.67;;;17.30;;
2662;SDS011;49701;48.072;7.800;2022-08-19T10:45:03;182.50;;;41.08;;
2662;SDS011;49701;48.072;7.800;2022-08-19T10:47:31;26.45;;;18.48;;
2662;SDS011;49701;48.072;7.800;2022-08-19T10:49:57;28.60;;;16.83;;
2662;SDS011;49701;48.072;7.800;2022-08-19T10:52:44;62.20;;;20.83;;
2662;SDS011;49701;48.072;7.800;2022-08-19T10:55:12;42.80;;;19.63;;
2662;SDS011;49701;48.072;7.800;2022-08-19T10:57:56;21.45;;;17.83;;
2662;SDS011;49701;48.072;7.800;2022-08-19T11:00:23;21.20;;;18.20;;
2662;SDS011;49701;48.072;7.800;2022-08-19T11:02:50;18.88;;;16.75;;
2662;SDS011;49701;48.072;7.800;2022-08-19T11:05:15;20.33;;;16.35;;
2662;SDS011;49701;48.072;7.800;2022-08-19T11:07:42;23.73;;;17.77;;
2662;SDS011;49701;48.072;7.800;2022-08-19T11:10:09;21.63;;;19.08;;
2662;SDS011;49701;48.072;7.800;2022-08-19T11:12:38;20.05;;;17.70;;
2662;SDS011;49701;48.072;7.800;2022-08-19T11:15:05;19.50;;;16.17;;
2662;SDS011;49701;48.072;7.800;2022-08-19T11:17:33;22.55;;;17.95;;
2662;SDS011;49701;48.072;7.800;2022-08-19T11:20:00;19.52;;;16.25;;
2662;SDS011;49701;48.072;7.800;2022-08-19T11:22:29;23.30;;;15.10;;
2662;SDS011;49701;48.072;7.800;2022-08-19T11:24:54;22.00;;;15.50;;
2662;SDS011;49701;48.072;7.800;2022-08-19T11:27:20;20.92;;;16.35;;
2662;SDS011;49701;48.072;7.800;2022-08-19T11:29:46;20.05;;;16.10;;
2662;SDS011;49701;48.072;7.800;2022-08-19T11:32:12;21.80;;;17.52;;
2662;SDS011;49701;48.072;7.800;2022-08-19T11:34:38;23.10;;;17.65;;
2662;SDS011;49701;48.072;7.800;2022-08-19T11:37:04;21.05;;;15.93;;
2662;SDS011;49701;48.072;7.800;2022-08-19T11:39:31;20.63;;;17.63;;
2662;SDS011;49701;48.072;7.800;2022-08-19T11:41:59;18.83;;;16.80;;
2662;SDS011;49701;48.072;7.800;2022-08-19T11:44:26;16.95;;;14.27;;
2662;SDS011;49701;48.072;7.800;2022-08-19T11:46:55;19.20;;;16.58;;
2662;SDS011;49701;48.072;7.800;2022-08-19T11:49:21;18.02;;;15.13;;
2662;SDS011;49701;48.072;7.800;2022-08-19T11:51:46;21.77;;;18.42;;
2662;SDS011;49701;48.072;7.800;2022-08-19T11:54:15;24.42;;;19.13;;
2662;SDS011;49701;48.072;7.800;2022-08-19T11:56:42;19.10;;;16.83;;
2662;SDS011;49701;48.072;7.800;2022-08-19T11:59:09;17.83;;;15.35;;
2662;SDS011;49701;48.072;7.800;2022-08-19T12:01:35;19.50;;;16.17;;
2662;SDS011;49701;48.072;7.800;2022-08-19T12:04:01;20.02;;;16.48;;
2662;SDS011;49701;48.072;7.800;2022-08-19T12:06:30;22.23;;;19.05;;
2662;SDS011;49701;48.072;7.800;2022-08-19T12:08:59;19.00;;;16.83;;
2662;SDS011;49701;48.072;7.800;2022-08-19T12:11:29;18.67;;;15.48;;
2662;SDS011;49701;48.072;7.800;2022-08-19T12:13:55;19.55;;;17.45;;
2662;SDS011;49701;48.072;7.800;2022-08-19T12:16:26;19.92;;;17.13;;
2662;SDS011;49701;48.072;7.800;2022-08-19T12:18:53;25.92;;;16.98;;
2662;SDS011;49701;48.072;7.800;2022-08-19T12:21:24;20.05;;;17.67;;
2662;SDS011;49701;48.072;7.800;2022-08-19T12:23:53;22.15;;;17.25;;
2662;SDS011;49701;48.072;7.800;2022-08-19T12:26:21;19.33;;;17.10;;
2662;SDS011;49701;48.072;7.800;2022-08-19T12:28:46;19.15;;;16.90;;
2662;SDS011;49701;48.072;7.800;2022-08-19T12:31:13;18.40;;;16.15;;
2662;SDS011;49701;48.072;7.800;2022-08-19T12:33:40;18.20;;;16.25;;
2662;SDS011;49701;48.072;7.800;2022-08-19T12:36:07;16.38;;;12.10;;
2662;SDS011;49701;48.072;7.800;2022-08-19T12:38:34;20.00;;;15.48;;
2662;SDS011;49701;48.072;7.800;2022-08-19T12:41:00;16.58;;;14.23;;
2662;SDS011;49701;48.072;7.800;2022-08-19T12:43:30;16.67;;;13.70;;
2662;SDS011;49701;48.072;7.800;2022-08-19T12:45:55;18.60;;;16.05;;
2662;SDS011;49701;48.072;7.800;2022-08-19T12:48:21;15.57;;;12.70;;
2662;SDS011;49701;48.072;7.800;2022-08-19T12:50:46;18.25;;;15.25;;
2662;SDS011;49701;48.072;7.800;2022-08-19T12:53:12;17.27;;;15.10;;
2662;SDS011;49701;48.072;7.800;2022-08-19T12:55:39;17.05;;;15.27;;
2662;SDS011;49701;48.072;7.800;2022-08-19T12:58:05;16.83;;;14.73;;
2662;SDS011;49701;48.072;7.800;2022-08-19T13:00:31;19.00;;;13.50;;
2662;SDS011;49701;48.072;7.800;2022-08-19T13:02:57;17.10;;;13.90;;
2662;SDS011;49701;48.072;7.800;2022-08-19T13:05:24;16.88;;;14.15;;
2662;SDS011;49701;48.072;7.800;2022-08-19T13:07:53;16.08;;;14.13;;
2662;SDS011;49701;48.072;7.800;2022-08-19T13:10:21;15.95;;;14.35;;
2662;SDS011;49701;48.072;7.800;2022-08-19T13:12:50;17.85;;;14.68;;
2662;SDS011;49701;48.072;7.800;2022-08-19T13:15:18;15.90;;;14.27;;
2662;SDS011;49701;48.072;7.800;2022-08-19T13:17:45;13.18;;;11.88;;
2662;SDS011;49701;48.072;7.800;2022-08-19T13:20:14;15.68;;;13.50;;
2662;SDS011;49701;48.072;7.800;2022-08-19T13:22:41;14.85;;;12.95;;
2662;SDS011;49701;48.072;7.800;2022-08-19T13:25:08;13.43;;;12.10;;
2662;SDS011;49701;48.072;7.800;2022-08-19T13:27:34;16.10;;;12.95;;
2662;SDS011;49701;48.072;7.800;2022-08-19T13:30:01;13.80;;;12.23;;
2662;SDS011;49701;48.072;7.800;2022-08-19T13:32:46;13.93;;;12.48;;
2662;SDS011;49701;48.072;7.800;2022-08-19T13:35:30;16.20;;;12.95;;
2662;SDS011;49701;48.072;7.800;2022-08-19T13:37:55;13.38;;;12.07;;
2662;SDS011;49701;48.072;7.800;2022-08-19T13:40:23;14.82;;;10.95;;
2662;SDS011;49701;48.072;7.800;2022-08-19T13:42:52;12.27;;;10.55;;
2662;SDS011;49701;48.072;7.800;2022-08-19T13:45:20;15.52;;;10.75;;
2662;SDS011;49701;48.072;7.800;2022-08-19T13:47:48;13.18;;;10.02;;
2662;SDS011;49701;48.072;7.800;2022-08-19T13:52:42;13.95;;;9.70;;
2662;SDS011;49701;48.072;7.800;2022-08-19T13:55:08;8.70;;;7.90;;
2662;SDS011;49701;48.072;7.800;2022-08-19T13:57:35;8.93;;;8.13;;
2662;SDS011;49701;48.072;7.800;2022-08-19T14:00:04;9.27;;;8.30;;
2662;SDS011;49701;48.072;7.800;2022-08-19T14:02:44;9.65;;;8.65;;
2662;SDS011;49701;48.072;7.800;2022-08-19T14:05:11;8.70;;;7.95;;
2662;SDS011;49701;48.072;7.800;2022-08-19T14:07:39;9.88;;;8.98;;
2662;SDS011;49701;48.072;7.800;2022-08-19T14:10:06;9.18;;;8.38;;
2662;SDS011;49701;48.072;7.800;2022-08-19T14:12:33;9.02;;;8.05;;
2662;SDS011;49701;48.072;7.800;2022-08-19T14:14:59;9.95;;;9.05;;
2662;SDS011;49701;48.072;7.800;2022-08-19T14:17:25;10.38;;;9.38;;
2662;SDS011;49701;48.072;7.800;2022-08-19T14:19:57;10.13;;;9.10;;
2662;SDS011;49701;48.072;7.800;2022-08-19T14:22:25;10.07;;;9.13;;
2662;SDS011;49701;48.072;7.800;2022-08-19T14:24:51;11.00;;;9.82;;
2662;SDS011;49701;48.072;7.800;2022-08-19T14:27:17;10.88;;;9.77;;
2662;SDS011;49701;48.072;7.800;2022-08-19T14:29:42;11.05;;;9.93;;
2662;SDS011;49701;48.072;7.800;2022-08-19T14:32:10;10.77;;;9.40;;
2662;SDS011;49701;48.072;7.800;2022-08-19T14:34:37;10.15;;;9.10;;
2662;SDS011;49701;48.072;7.800;2022-08-19T14:37:02;12.18;;;9.77;;
2662;SDS011;49701;48.072;7.800;2022-08-19T14:39:28;10.27;;;9.27;;
2662;SDS011;49701;48.072;7.800;2022-08-19T14:41:54;11.27;;;10.13;;
2662;SDS011;49701;48.072;7.800;2022-08-19T14:44:19;9.85;;;8.95;;
2662;SDS011;49701;48.072;7.800;2022-08-19T14:46:45;10.68;;;9.00;;
2662;SDS011;49701;48.072;7.800;2022-08-19T14:49:10;11.25;;;10.15;;
2662;SDS011;49701;48.072;7.800;2022-08-19T14:51:37;11.18;;;9.95;;
2662;SDS011;49701;48.072;7.800;2022-08-19T14:54:03;11.20;;;10.10;;
2662;SDS011;49701;48.072;7.800;2022-08-19T14:56:29;12.00;;;10.60;;